Terminal Aerodrome Forecast
Issued by NWS

Home | Current Version | Previous Version | Text Only | Print | Product List | Glossary Off
Versions: 1 2 3 4 5 6 7 8 9 10 11 12 13 14

000
FTUS43 KBIS 242300
TAFMOT
TAF
KMOT 242334Z 2500/2524 29004KT 1SM -SN BR OVC007
     FM250300 31010KT 3SM -SN BR OVC008
     FM250900 35009KT P6SM OVC008
     FM251800 24008KT P6SM SCT008 BKN015=

USA.gov is the U.S. government's official web portal to all federal, state and local government web resources and services.